sensor_id;sensor_type;location;lat;lon;timestamp;pressure;altitude;pressure_sealevel;temperature;humidity
4398;BME280;2213;49.720;7.296;2023-02-12T00:00:21;100185.53;;;5.22;100.00
4398;BME280;2213;49.720;7.296;2023-02-12T00:02:49;100170.91;;;5.21;100.00
4398;BME280;2213;49.720;7.296;2023-02-12T00:05:18;100177.84;;;5.21;100.00
4398;BME280;2213;49.720;7.296;2023-02-12T00:07:48;100174.31;;;5.22;100.00
4398;BME280;2213;49.720;7.296;2023-02-12T00:10:18;100172.78;;;5.19;100.00
4398;BME280;2213;49.720;7.296;2023-02-12T00:12:49;100173.59;;;5.20;100.00
4398;BME280;2213;49.720;7.296;2023-02-12T00:15:18;100190.19;;;5.17;100.00
4398;BME280;2213;49.720;7.296;2023-02-12T00:17:48;100178.88;;;5.18;100.00
4398;BME280;2213;49.720;7.296;2023-02-12T00:20:18;100188.31;;;5.19;100.00
4398;BME280;2213;49.720;7.296;2023-02-12T00:22:48;100177.41;;;5.14;100.00
4398;BME280;2213;49.720;7.296;2023-02-12T00:25:17;100181.69;;;5.15;100.00
4398;BME280;2213;49.720;7.296;2023-02-12T00:27:48;100186.16;;;5.13;100.00
4398;BME280;2213;49.720;7.296;2023-02-12T00:30:19;100186.16;;;5.13;100.00
4398;BME280;2213;49.720;7.296;2023-02-12T00:32:48;100185.31;;;5.13;100.00
4398;BME280;2213;49.720;7.296;2023-02-12T00:35:18;100175.84;;;5.12;100.00
4398;BME280;2213;49.720;7.296;2023-02-12T00:37:47;100183.91;;;5.07;100.00
4398;BME280;2213;49.720;7.296;2023-02-12T00:40:17;100180.53;;;5.06;100.00
4398;BME280;2213;49.720;7.296;2023-02-12T00:42:46;100180.41;;;5.08;100.00
4398;BME280;2213;49.720;7.296;2023-02-12T00:45:17;100177.09;;;5.06;100.00
4398;BME280;2213;49.720;7.296;2023-02-12T00:47:46;100184.97;;;5.04;100.00
4398;BME280;2213;49.720;7.296;2023-02-12T00:50:16;100185.59;;;5.08;100.00
4398;BME280;2213;49.720;7.296;2023-02-12T00:52:45;100178.56;;;5.10;100.00
4398;BME280;2213;49.720;7.296;2023-02-12T00:55:15;100182.09;;;5.09;100.00
4398;BME280;2213;49.720;7.296;2023-02-12T00:57:44;100186.22;;;5.12;100.00
4398;BME280;2213;49.720;7.296;2023-02-12T01:00:18;100194.63;;;5.15;100.00
4398;BME280;2213;49.720;7.296;2023-02-12T01:02:48;100188.53;;;5.16;100.00
4398;BME280;2213;49.720;7.296;2023-02-12T01:05:19;100187.78;;;5.14;100.00
4398;BME280;2213;49.720;7.296;2023-02-12T01:07:51;100185.31;;;5.13;100.00
4398;BME280;2213;49.720;7.296;2023-02-12T01:10:21;100187.06;;;5.12;100.00
4398;BME280;2213;49.720;7.296;2023-02-12T01:12:50;100192.88;;;5.16;100.00
4398;BME280;2213;49.720;7.296;2023-02-12T01:15:21;100204.09;;;5.16;100.00
4398;BME280;2213;49.720;7.296;2023-02-12T01:17:50;100186.03;;;5.15;100.00
4398;BME280;2213;49.720;7.296;2023-02-12T01:20:22;100182.81;;;5.11;100.00
4398;BME280;2213;49.720;7.296;2023-02-12T01:22:52;100192.44;;;5.09;100.00
4398;BME280;2213;49.720;7.296;2023-02-12T01:25:21;100190.78;;;5.08;100.00
4398;BME280;2213;49.720;7.296;2023-02-12T01:27:53;100190.06;;;5.06;100.00
4398;BME280;2213;49.720;7.296;2023-02-12T01:30:24;100189.13;;;5.07;100.00
4398;BME280;2213;49.720;7.296;2023-02-12T01:32:55;100195.13;;;5.07;100.00
4398;BME280;2213;49.720;7.296;2023-02-12T01:35:25;100197.84;;;5.06;100.00
4398;BME280;2213;49.720;7.296;2023-02-12T01:37:54;100203.03;;;5.06;100.00
4398;BME280;2213;49.720;7.296;2023-02-12T01:40:24;100204.66;;;5.07;100.00
4398;BME280;2213;49.720;7.296;2023-02-12T01:42:53;100202.00;;;5.08;100.00
4398;BME280;2213;49.720;7.296;2023-02-12T01:45:48;100198.56;;;5.08;100.00
4398;BME280;2213;49.720;7.296;2023-02-12T01:48:24;100198.69;;;5.06;100.00
4398;BME280;2213;49.720;7.296;2023-02-12T01:50:56;100190.16;;;5.04;100.00
4398;BME280;2213;49.720;7.296;2023-02-12T01:53:33;100190.16;;;5.04;100.00
4398;BME280;2213;49.720;7.296;2023-02-12T01:56:04;100190.97;;;5.05;100.00
4398;BME280;2213;49.720;7.296;2023-02-12T01:58:38;100191.19;;;5.02;100.00
4398;BME280;2213;49.720;7.296;2023-02-12T02:01:17;100183.59;;;4.99;100.00
4398;BME280;2213;49.720;7.296;2023-02-12T02:03:54;100175.63;;;5.02;100.00
4398;BME280;2213;49.720;7.296;2023-02-12T02:06:30;100181.66;;;5.02;100.00
4398;BME280;2213;49.720;7.296;2023-02-12T02:09:02;100179.97;;;5.01;100.00
4398;BME280;2213;49.720;7.296;2023-02-12T02:11:32;100182.56;;;5.01;100.00
4398;BME280;2213;49.720;7.296;2023-02-12T02:14:18;100185.25;;;5.00;100.00
4398;BME280;2213;49.720;7.296;2023-02-12T02:17:46;100180.91;;;5.00;100.00
4398;BME280;2213;49.720;7.296;2023-02-12T02:24:20;100174.16;;;4.98;100.00
4398;BME280;2213;49.720;7.296;2023-02-12T02:27:15;100177.38;;;5.01;100.00
4398;BME280;2213;49.720;7.296;2023-02-12T02:30:31;100173.75;;;5.04;100.00
4398;BME280;2213;49.720;7.296;2023-02-12T02:33:22;100160.91;;;5.02;100.00
4398;BME280;2213;49.720;7.296;2023-02-12T02:36:04;100164.22;;;5.04;100.00
4398;BME280;2213;49.720;7.296;2023-02-12T02:38:43;100165.06;;;5.05;100.00
4398;BME280;2213;49.720;7.296;2023-02-12T02:41:22;100167.94;;;5.00;100.00
4398;BME280;2213;49.720;7.296;2023-02-12T02:43:55;100166.94;;;5.03;100.00
4398;BME280;2213;49.720;7.296;2023-02-12T02:46:31;100167.09;;;5.00;100.00
4398;BME280;2213;49.720;7.296;2023-02-12T02:49:06;100162.03;;;4.98;100.00
4398;BME280;2213;49.720;7.296;2023-02-12T02:51:43;100158.59;;;4.98;100.00
4398;BME280;2213;49.720;7.296;2023-02-12T02:54:18;100164.00;;;4.95;100.00
4398;BME280;2213;49.720;7.296;2023-02-12T02:56:55;100164.00;;;4.95;100.00
4398;BME280;2213;49.720;7.296;2023-02-12T02:59:35;100157.88;;;4.96;100.00
4398;BME280;2213;49.720;7.296;2023-02-12T03:02:13;100163.78;;;4.98;100.00
4398;BME280;2213;49.720;7.296;2023-02-12T03:04:49;100163.59;;;5.01;100.00
4398;BME280;2213;49.720;7.296;2023-02-12T03:07:24;100173.13;;;5.00;100.00
4398;BME280;2213;49.720;7.296;2023-02-12T03:10:01;100169.59;;;5.01;100.00
4398;BME280;2213;49.720;7.296;2023-02-12T03:12:40;100166.19;;;5.01;100.00
4398;BME280;2213;49.720;7.296;2023-02-12T03:15:19;100164.50;;;5.00;100.00
4398;BME280;2213;49.720;7.296;2023-02-12T03:17:51;100167.94;;;5.00;100.00
4398;BME280;2213;49.720;7.296;2023-02-12T03:20:25;100163.38;;;5.04;100.00
4398;BME280;2213;49.720;7.296;2023-02-12T03:23:02;100156.66;;;5.01;100.00
4398;BME280;2213;49.720;7.296;2023-02-12T03:25:38;100161.84;;;5.01;100.00
4398;BME280;2213;49.720;7.296;2023-02-12T03:28:15;100166.94;;;5.03;100.00
4398;BME280;2213;49.720;7.296;2023-02-12T03:30:51;100168.56;;;5.04;100.00
4398;BME280;2213;49.720;7.296;2023-02-12T03:33:36;100164.44;;;5.01;100.00
4398;BME280;2213;49.720;7.296;2023-02-12T03:36:25;100167.09;;;5.00;100.00
4398;BME280;2213;49.720;7.296;2023-02-12T03:38:56;100159.25;;;5.01;100.00
4398;BME280;2213;49.720;7.296;2023-02-12T03:41:40;100160.16;;;5.00;100.00
4398;BME280;2213;49.720;7.296;2023-02-12T03:44:22;100162.56;;;5.03;100.00
4398;BME280;2213;49.720;7.296;2023-02-12T03:47:03;100163.16;;;4.94;100.00
4398;BME280;2213;49.720;7.296;2023-02-12T03:49:40;100170.94;;;4.94;100.00
4398;BME280;2213;49.720;7.296;2023-02-12T03:52:12;100169.19;;;4.95;100.00
4398;BME280;2213;49.720;7.296;2023-02-12T03:54:42;100162.97;;;4.97;100.00
4398;BME280;2213;49.720;7.296;2023-02-12T03:57:17;100168.97;;;4.98;100.00
4398;BME280;2213;49.720;7.296;2023-02-12T03:59:49;100168.97;;;4.98;100.00
4398;BME280;2213;49.720;7.296;2023-02-12T04:02:18;100165.66;;;4.96;100.00
4398;BME280;2213;49.720;7.296;2023-02-12T04:04:50;100164.81;;;4.95;100.00
4398;BME280;2213;49.720;7.296;2023-02-12T04:07:20;100163.16;;;4.94;100.00
4398;BME280;2213;49.720;7.296;2023-02-12T04:09:49;100165.84;;;4.93;100.00
4398;BME280;2213;49.720;7.296;2023-02-12T04:12:39;100165.84;;;4.93;100.00
4398;BME280;2213;49.720;7.296;2023-02-12T04:15:45;100171.03;;;4.93;100.00
4398;BME280;2213;49.720;7.296;2023-02-12T04:18:23;100173.53;;;4.94;100.00
4398;BME280;2213;49.720;7.296;2023-02-12T04:21:05;100164.00;;;4.95;100.00
4398;BME280;2213;49.720;7.296;2023-02-12T04:23:53;100167.72;;;4.91;100.00
4398;BME280;2213;49.720;7.296;2023-02-12T04:26:36;100167.06;;;4.87;100.00
4398;BME280;2213;49.720;7.296;2023-02-12T04:29:17;100174.84;;;4.87;100.00
4398;BME280;2213;49.720;7.296;2023-02-12T04:31:58;100168.00;;;4.86;100.00
4398;BME280;2213;49.720;7.296;2023-02-12T04:34:38;100181.34;;;4.80;100.00
4398;BME280;2213;49.720;7.296;2023-02-12T04:37:17;100175.53;;;4.77;100.00
4398;BME280;2213;49.720;7.296;2023-02-12T04:39:48;100183.59;;;4.72;100.00
4398;BME280;2213;49.720;7.296;2023-02-12T04:42:19;100180.00;;;4.75;100.00
4398;BME280;2213;49.720;7.296;2023-02-12T04:44:49;100168.78;;;4.74;100.00
4398;BME280;2213;49.720;7.296;2023-02-12T04:47:19;100174.63;;;4.78;100.00
4398;BME280;2213;49.720;7.296;2023-02-12T04:49:49;100170.28;;;4.78;100.00
4398;BME280;2213;49.720;7.296;2023-02-12T04:52:21;100173.22;;;4.72;100.00
4398;BME280;2213;49.720;7.296;2023-02-12T04:54:51;100169.06;;;4.70;100.00
4398;BME280;2213;49.720;7.296;2023-02-12T04:57:20;100176.97;;;4.68;100.00
4398;BME280;2213;49.720;7.296;2023-02-12T04:59:51;100170.75;;;4.71;100.00
4398;BME280;2213;49.720;7.296;2023-02-12T05:02:21;100171.66;;;4.70;100.00
4398;BME280;2213;49.720;7.296;2023-02-12T05:04:51;100164.94;;;4.67;100.00
4398;BME280;2213;49.720;7.296;2023-02-12T05:07:24;100165.13;;;4.64;100.00
4398;BME280;2213;49.720;7.296;2023-02-12T05:09:53;100167.59;;;4.66;100.00
4398;BME280;2213;49.720;7.296;2023-02-12T05:12:23;100160.59;;;4.68;100.00
4398;BME280;2213;49.720;7.296;2023-02-12T05:14:53;100167.25;;;4.72;100.00
4398;BME280;2213;49.720;7.296;2023-02-12T05:17:23;100161.09;;;4.73;100.00
4398;BME280;2213;49.720;7.296;2023-02-12T05:19:53;100167.03;;;4.75;100.00
4398;BME280;2213;49.720;7.296;2023-02-12T05:22:24;100167.03;;;4.75;100.00
4398;BME280;2213;49.720;7.296;2023-02-12T05:24:54;100160.00;;;4.77;100.00
4398;BME280;2213;49.720;7.296;2023-02-12T05:27:25;100170.16;;;4.80;100.00
4398;BME280;2213;49.720;7.296;2023-02-12T05:29:54;100171.81;;;4.81;100.00
4398;BME280;2213;49.720;7.296;2023-02-12T05:32:24;100173.50;;;4.82;100.00
4398;BME280;2213;49.720;7.296;2023-02-12T05:34:53;100174.22;;;4.84;100.00
4398;BME280;2213;49.720;7.296;2023-02-12T05:37:25;100175.06;;;4.84;100.00
4398;BME280;2213;49.720;7.296;2023-02-12T05:39:54;100176.81;;;4.84;100.00
4398;BME280;2213;49.720;7.296;2023-02-12T05:42:25;100169.94;;;4.83;100.00
4398;BME280;2213;49.720;7.296;2023-02-12T05:44:54;100175.13;;;4.83;100.00
4398;BME280;2213;49.720;7.296;2023-02-12T05:47:23;100169.16;;;4.82;100.00
4398;BME280;2213;49.720;7.296;2023-02-12T05:49:53;100166.84;;;4.78;100.00
4398;BME280;2213;49.720;7.296;2023-02-12T05:52:25;100173.78;;;4.77;100.00
4398;BME280;2213;49.720;7.296;2023-02-12T05:54:56;100173.69;;;4.79;100.00
4398;BME280;2213;49.720;7.296;2023-02-12T05:57:26;100176.16;;;4.80;100.00
4398;BME280;2213;49.720;7.296;2023-02-12T05:59:55;100175.44;;;4.78;100.00
4398;BME280;2213;49.720;7.296;2023-02-12T06:02:25;100175.53;;;4.77;100.00
4398;BME280;2213;49.720;7.296;2023-02-12T06:04:56;100180.09;;;4.73;100.00
4398;BME280;2213;49.720;7.296;2023-02-12T06:07:28;100172.84;;;4.78;100.00
4398;BME280;2213;49.720;7.296;2023-02-12T06:09:57;100177.00;;;4.81;100.00
4398;BME280;2213;49.720;7.296;2023-02-12T06:12:28;100178.69;;;4.82;100.00
4398;BME280;2213;49.720;7.296;2023-02-12T06:14:58;100172.84;;;4.78;100.00
4398;BME280;2213;49.720;7.296;2023-02-12T06:17:29;100182.38;;;4.78;100.00
4398;BME280;2213;49.720;7.296;2023-02-12T06:19:58;100183.22;;;4.78;100.00
4398;BME280;2213;49.720;7.296;2023-02-12T06:22:29;100184.78;;;4.81;100.00
4398;BME280;2213;49.720;7.296;2023-02-12T06:25:00;100184.88;;;4.79;100.00
4398;BME280;2213;49.720;7.296;2023-02-12T06:27:30;100192.56;;;4.81;100.00
4398;BME280;2213;49.720;7.296;2023-02-12T06:30:02;100191.84;;;4.79;100.00
4398;BME280;2213;49.720;7.296;2023-02-12T06:32:33;100196.25;;;4.77;100.00
4398;BME280;2213;49.720;7.296;2023-02-12T06:35:04;100189.25;;;4.79;100.00
4398;BME280;2213;49.720;7.296;2023-02-12T06:37:36;100186.75;;;4.77;100.00
4398;BME280;2213;49.720;7.296;2023-02-12T06:40:07;100191.84;;;4.79;100.00
4398;BME280;2213;49.720;7.296;2023-02-12T06:42:37;100198.66;;;4.80;100.00
4398;BME280;2213;49.720;7.296;2023-02-12T06:45:07;100196.06;;;4.80;100.00
4398;BME280;2213;49.720;7.296;2023-02-12T06:47:38;100199.28;;;4.83;100.00
4398;BME280;2213;49.720;7.296;2023-02-12T06:50:10;100189.97;;;4.81;100.00
4398;BME280;2213;49.720;7.296;2023-02-12T06:52:42;100203.00;;;4.79;100.00
4398;BME280;2213;49.720;7.296;2023-02-12T06:55:13;100207.66;;;4.74;100.00
4398;BME280;2213;49.720;7.296;2023-02-12T06:57:42;100214.41;;;4.77;100.00
4398;BME280;2213;49.720;7.296;2023-02-12T07:00:14;100210.78;;;4.79;100.00
4398;BME280;2213;49.720;7.296;2023-02-12T07:02:43;100214.22;;;4.80;100.00
4398;BME280;2213;49.720;7.296;2023-02-12T07:05:12;100220.22;;;4.80;100.00
4398;BME280;2213;49.720;7.296;2023-02-12T07:07:44;100224.56;;;4.80;100.00
4398;BME280;2213;49.720;7.296;2023-02-12T07:10:13;100226.25;;;4.81;100.00
4398;BME280;2213;49.720;7.296;2023-02-12T07:12:43;100226.97;;;4.83;100.00
4398;BME280;2213;49.720;7.296;2023-02-12T07:15:14;100224.50;;;4.81;100.00
4398;BME280;2213;49.720;7.296;2023-02-12T07:17:44;100220.16;;;4.82;100.00
4398;BME280;2213;49.720;7.296;2023-02-12T07:20:16;100225.22;;;4.83;100.00
4398;BME280;2213;49.720;7.296;2023-02-12T07:22:47;100222.72;;;4.82;100.00
4398;BME280;2213;49.720;7.296;2023-02-12T07:25:19;100225.31;;;4.82;100.00
4398;BME280;2213;49.720;7.296;2023-02-12T07:27:48;100226.16;;;4.82;100.00
4398;BME280;2213;49.720;7.296;2023-02-12T07:30:19;100228.44;;;4.87;100.00
4398;BME280;2213;49.720;7.296;2023-02-12T07:32:50;100230.13;;;4.88;100.00
4398;BME280;2213;49.720;7.296;2023-02-12T07:35:20;100232.63;;;4.89;100.00
4398;BME280;2213;49.720;7.296;2023-02-12T07:37:52;100223.81;;;4.92;100.00
4398;BME280;2213;49.720;7.296;2023-02-12T07:40:22;100225.47;;;4.93;100.00
4398;BME280;2213;49.720;7.296;2023-02-12T07:42:54;100221.94;;;4.94;100.00
4398;BME280;2213;49.720;7.296;2023-02-12T07:45:24;100215.63;;;4.98;100.00
4398;BME280;2213;49.720;7.296;2023-02-12T07:47:53;100223.22;;;5.01;100.00
4398;BME280;2213;49.720;7.296;2023-02-12T07:50:24;100217.31;;;4.99;100.00
4398;BME280;2213;49.720;7.296;2023-02-12T07:52:55;100219.69;;;5.02;100.00
4398;BME280;2213;49.720;7.296;2023-02-12T07:55:24;100219.50;;;5.05;100.00
4398;BME280;2213;49.720;7.296;2023-02-12T07:57:55;100225.59;;;5.04;100.00
4398;BME280;2213;49.720;7.296;2023-02-12T08:00:24;100226.56;;;5.03;100.00
4398;BME280;2213;49.720;7.296;2023-02-12T08:02:55;100223.66;;;5.07;100.00
4398;BME280;2213;49.720;7.296;2023-02-12T08:05:26;100235.59;;;5.10;100.00
4398;BME280;2213;49.720;7.296;2023-02-12T08:07:57;100232.91;;;5.12;100.00
4398;BME280;2213;49.720;7.296;2023-02-12T08:10:28;100231.06;;;5.14;100.00
4398;BME280;2213;49.720;7.296;2023-02-12T08:13:00;100239.47;;;5.17;100.00
4398;BME280;2213;49.720;7.296;2023-02-12T08:15:31;100234.09;;;5.20;100.00
4398;BME280;2213;49.720;7.296;2023-02-12T08:18:02;100243.31;;;5.24;100.00
4398;BME280;2213;49.720;7.296;2023-02-12T08:20:33;100232.00;;;5.25;100.00
4398;BME280;2213;49.720;7.296;2023-02-12T08:23:05;100234.41;;;5.28;100.00
4398;BME280;2213;49.720;7.296;2023-02-12T08:25:36;100225.50;;;5.32;100.00
4398;BME280;2213;49.720;7.296;2023-02-12T08:28:05;100238.19;;;5.37;100.00
4398;BME280;2213;49.720;7.296;2023-02-12T08:30:37;100235.47;;;5.38;100.00
4398;BME280;2213;49.720;7.296;2023-02-12T08:33:08;100240.47;;;5.41;100.00
4398;BME280;2213;49.720;7.296;2023-02-12T08:35:38;100241.06;;;5.45;100.00
4398;BME280;2213;49.720;7.296;2023-02-12T08:38:08;100243.59;;;5.46;100.00
4398;BME280;2213;49.720;7.296;2023-02-12T08:40:40;100243.38;;;5.49;100.00
4398;BME280;2213;49.720;7.296;2023-02-12T08:43:11;100239.66;;;5.53;100.00
4398;BME280;2213;49.720;7.296;2023-02-12T08:45:42;100242.03;;;5.56;100.00
4398;BME280;2213;49.720;7.296;2023-02-12T08:48:11;100233.22;;;5.59;100.00
4398;BME280;2213;49.720;7.296;2023-02-12T08:50:41;100240.63;;;5.65;100.00
4398;BME280;2213;49.720;7.296;2023-02-12T08:53:11;100239.56;;;5.68;100.00
4398;BME280;2213;49.720;7.296;2023-02-12T08:55:47;100239.38;;;5.71;100.00
4398;BME280;2213;49.720;7.296;2023-02-12T08:58:18;100244.34;;;5.74;100.00
4398;BME280;2213;49.720;7.296;2023-02-12T09:00:47;100247.78;;;5.74;100.00
4398;BME280;2213;49.720;7.296;2023-02-12T09:03:18;100248.41;;;5.78;100.00
4398;BME280;2213;49.720;7.296;2023-02-12T09:05:48;100242.19;;;5.80;100.00
4398;BME280;2213;49.720;7.296;2023-02-12T09:08:19;100241.16;;;5.83;100.00
4398;BME280;2213;49.720;7.296;2023-02-12T09:10:49;100238.44;;;5.84;100.00
4398;BME280;2213;49.720;7.296;2023-02-12T09:13:21;100243.47;;;5.87;100.00
4398;BME280;2213;49.720;7.296;2023-02-12T09:15:50;100245.03;;;5.90;100.00
4398;BME280;2213;49.720;7.296;2023-02-12T09:18:20;100250.13;;;5.91;100.00
4398;BME280;2213;49.720;7.296;2023-02-12T09:20:50;100250.03;;;5.93;100.00
4398;BME280;2213;49.720;7.296;2023-02-12T09:23:21;100251.59;;;5.95;100.00
4398;BME280;2213;49.720;7.296;2023-02-12T09:25:51;100250.44;;;5.99;100.00
4398;BME280;2213;49.720;7.296;2023-02-12T09:28:22;100252.81;;;6.02;100.00
4398;BME280;2213;49.720;7.296;2023-02-12T09:30:52;100254.50;;;6.03;100.00
4398;BME280;2213;49.720;7.296;2023-02-12T09:33:23;100260.50;;;6.04;100.00
4398;BME280;2213;49.720;7.296;2023-02-12T09:35:53;100255.13;;;6.07;100.00
4398;BME280;2213;49.720;7.296;2023-02-12T09:38:25;100259.16;;;6.11;100.00
4398;BME280;2213;49.720;7.296;2023-02-12T09:41:16;100263.41;;;6.12;100.00
4398;BME280;2213;49.720;7.296;2023-02-12T09:43:58;100258.00;;;6.15;100.00
4398;BME280;2213;49.720;7.296;2023-02-12T09:46:36;100257.78;;;6.18;100.00
4398;BME280;2213;49.720;7.296;2023-02-12T09:49:22;100259.47;;;6.19;100.00
4398;BME280;2213;49.720;7.296;2023-02-12T09:51:55;100254.06;;;6.22;100.00
4398;BME280;2213;49.720;7.296;2023-02-12T09:54:37;100251.03;;;6.28;100.00
4398;BME280;2213;49.720;7.296;2023-02-12T09:57:19;100256.97;;;6.30;100.00
4398;BME280;2213;49.720;7.296;2023-02-12T09:59:57;100256.75;;;6.33;100.00
4398;BME280;2213;49.720;7.296;2023-02-12T10:02:28;100262.56;;;6.37;100.00
4398;BME280;2213;49.720;7.296;2023-02-12T10:04:58;100265.88;;;6.39;100.00
4398;BME280;2213;49.720;7.296;2023-02-12T10:07:53;100257.78;;;6.43;100.00
4398;BME280;2213;49.720;7.296;2023-02-12T10:10:46;100258.53;;;6.45;100.00
4398;BME280;2213;49.720;7.296;2023-02-12T10:13:34;100256.63;;;6.47;100.00
4398;BME280;2213;49.720;7.296;2023-02-12T10:16:44;100261.63;;;6.50;100.00
4398;BME280;2213;49.720;7.296;2023-02-12T10:19:55;100260.56;;;6.53;100.00
4398;BME280;2213;49.720;7.296;2023-02-12T10:22:55;100259.41;;;6.57;100.00
4398;BME280;2213;49.720;7.296;2023-02-12T10:25:38;100261.94;;;6.58;100.00
4398;BME280;2213;49.720;7.296;2023-02-12T10:28:12;100256.50;;;6.62;100.00
4398;BME280;2213;49.720;7.296;2023-02-12T10:30:50;100258.97;;;6.63;100.00
4398;BME280;2213;49.720;7.296;2023-02-12T10:33:29;100256.06;;;6.68;100.00
4398;BME280;2213;49.720;7.296;2023-02-12T10:36:14;100252.53;;;6.69;100.00
4398;BME280;2213;49.720;7.296;2023-02-12T10:38:51;100254.09;;;6.71;100.00
4398;BME280;2213;49.720;7.296;2023-02-12T10:41:30;100258.22;;;6.74;100.00
4398;BME280;2213;49.720;7.296;2023-02-12T10:44:00;100255.63;;;6.74;100.00
4398;BME280;2213;49.720;7.296;2023-02-12T10:46:31;100251.28;;;6.74;100.00
4398;BME280;2213;49.720;7.296;2023-02-12T10:49:02;100245.84;;;6.77;100.00
4398;BME280;2213;49.720;7.296;2023-02-12T10:52:01;100244.81;;;6.80;100.00
4398;BME280;2213;49.720;7.296;2023-02-12T10:54:38;100244.69;;;6.81;100.00
4398;BME280;2213;49.720;7.296;2023-02-12T10:57:20;100242.94;;;6.82;100.00
4398;BME280;2213;49.720;7.296;2023-02-12T10:59:53;100238.34;;;6.85;100.00
4398;BME280;2213;49.720;7.296;2023-02-12T11:02:27;100240.03;;;6.86;100.00
4398;BME280;2213;49.720;7.296;2023-02-12T11:04:58;100231.16;;;6.89;100.00
4398;BME280;2213;49.720;7.296;2023-02-12T11:07:28;100238.13;;;6.88;100.00
4398;BME280;2213;49.720;7.296;2023-02-12T11:10:24;100236.34;;;6.89;100.00
4398;BME280;2213;49.720;7.296;2023-02-12T11:12:58;100238.03;;;6.90;100.00
4398;BME280;2213;49.720;7.296;2023-02-12T11:15:36;100234.47;;;6.91;100.00
4398;BME280;2213;49.720;7.296;2023-02-12T11:18:20;100223.13;;;6.92;100.00
4398;BME280;2213;49.720;7.296;2023-02-12T11:20:52;100228.13;;;6.95;100.00
4398;BME280;2213;49.720;7.296;2023-02-12T11:23:26;100224.59;;;6.96;100.00
4398;BME280;2213;49.720;7.296;2023-02-12T11:26:00;100226.25;;;6.97;100.00
4398;BME280;2213;49.720;7.296;2023-02-12T11:28:33;100224.25;;;7.00;100.00
4398;BME280;2213;49.720;7.296;2023-02-12T11:31:24;100218.94;;;7.02;100.00
4398;BME280;2213;49.720;7.296;2023-02-12T11:34:11;100219.66;;;7.04;100.00
4398;BME280;2213;49.720;7.296;2023-02-12T11:36:45;100218.00;;;7.03;100.00
4398;BME280;2213;49.720;7.296;2023-02-12T11:39:21;100215.16;;;7.06;100.00
4398;BME280;2213;49.720;7.296;2023-02-12T11:41:55;100208.28;;;7.05;100.00
4398;BME280;2213;49.720;7.296;2023-02-12T11:44:31;100213.28;;;7.08;100.00
4398;BME280;2213;49.720;7.296;2023-02-12T11:47:08;100211.41;;;7.10;100.00
4398;BME280;2213;49.720;7.296;2023-02-12T11:49:47;100214.00;;;7.10;100.00
4398;BME280;2213;49.720;7.296;2023-02-12T11:52:22;100212.13;;;7.12;100.00
4398;BME280;2213;49.720;7.296;2023-02-12T11:54:57;100204.09;;;7.15;100.00
4398;BME280;2213;49.720;7.296;2023-02-12T11:57:38;100203.97;;;7.17;100.00
4398;BME280;2213;49.720;7.296;2023-02-12T12:00:17;100199.47;;;7.19;100.00
4398;BME280;2213;49.720;7.296;2023-02-12T12:02:54;100196.78;;;7.20;100.00
4398;BME280;2213;49.720;7.296;2023-02-12T12:05:34;100199.28;;;7.22;100.00
4398;BME280;2213;49.720;7.296;2023-02-12T12:08:17;100199.28;;;7.22;100.00
4398;BME280;2213;49.720;7.296;2023-02-12T12:10:57;100196.47;;;7.25;100.00
4398;BME280;2213;49.720;7.296;2023-02-12T12:13:35;100199.16;;;7.23;100.00
4398;BME280;2213;49.720;7.296;2023-02-12T12:16:13;100196.31;;;7.26;100.00
4398;BME280;2213;49.720;7.296;2023-02-12T12:19:08;100192.56;;;7.30;100.00
4398;BME280;2213;49.720;7.296;2023-02-12T12:22:10;100189.25;;;7.28;100.00
4398;BME280;2213;49.720;7.296;2023-02-12T12:24:48;100187.13;;;7.33;100.00
4398;BME280;2213;49.720;7.296;2023-02-12T12:27:31;100187.72;;;7.37;100.00
4398;BME280;2213;49.720;7.296;2023-02-12T12:30:32;100179.81;;;7.38;100.00
4398;BME280;2213;49.720;7.296;2023-02-12T12:33:11;100185.50;;;7.43;100.00
4398;BME280;2213;49.720;7.296;2023-02-12T12:35:58;100182.78;;;7.45;100.00
4398;BME280;2213;49.720;7.296;2023-02-12T12:38:46;100186.09;;;7.47;100.00
4398;BME280;2213;49.720;7.296;2023-02-12T12:41:34;100173.69;;;7.50;100.00
4398;BME280;2213;49.720;7.296;2023-02-12T12:44:27;100172.75;;;7.51;100.00
4398;BME280;2213;49.720;7.296;2023-02-12T12:47:19;100170.84;;;7.53;100.00
4398;BME280;2213;49.720;7.296;2023-02-12T12:50:08;100166.38;;;7.55;100.00
4398;BME280;2213;49.720;7.296;2023-02-12T12:53:11;100165.44;;;7.56;100.00
4398;BME280;2213;49.720;7.296;2023-02-12T12:56:13;100155.63;;;7.60;100.00
4398;BME280;2213;49.720;7.296;2023-02-12T12:59:14;100158.00;;;7.63;100.00
4398;BME280;2213;49.720;7.296;2023-02-12T13:02:17;100156.09;;;7.65;100.00
4398;BME280;2213;49.720;7.296;2023-02-12T13:05:43;100144.00;;;7.64;100.00
4398;BME280;2213;49.720;7.296;2023-02-12T13:08:40;100140.38;;;7.67;100.00
4398;BME280;2213;49.720;7.296;2023-02-12T13:11:32;100142.97;;;7.67;100.00
4398;BME280;2213;49.720;7.296;2023-02-12T13:14:18;100145.34;;;7.70;100.00
4398;BME280;2213;49.720;7.296;2023-02-12T13:17:01;100132.06;;;7.73;100.00
4398;BME280;2213;49.720;7.296;2023-02-12T13:19:52;100133.75;;;7.74;100.00
4398;BME280;2213;49.720;7.296;2023-02-12T13:22:33;100131.72;;;7.77;100.00
4398;BME280;2213;49.720;7.296;2023-02-12T13:25:21;100130.66;;;7.80;100.00
4398;BME280;2213;49.720;7.296;2023-02-12T13:27:55;100134.94;;;7.81;100.00
4398;BME280;2213;49.720;7.296;2023-02-12T13:30:31;100133.25;;;7.80;100.00
4398;BME280;2213;49.720;7.296;2023-02-12T13:33:10;100131.34;;;7.82;100.00
4398;BME280;2213;49.720;7.296;2023-02-12T13:35:45;100124.28;;;7.84;100.00
4398;BME280;2213;49.720;7.296;2023-02-12T13:38:23;100124.03;;;7.87;100.00
4398;BME280;2213;49.720;7.296;2023-02-12T13:41:00;100118.81;;;7.87;100.00
4398;BME280;2213;49.720;7.296;2023-02-12T13:43:44;100118.81;;;7.87;100.00
4398;BME280;2213;49.720;7.296;2023-02-12T13:46:22;100115.28;;;7.88;100.00
4398;BME280;2213;49.720;7.296;2023-02-12T13:49:05;100116.69;;;7.92;100.00
4398;BME280;2213;49.720;7.296;2023-02-12T13:51:45;100109.00;;;7.90;100.00
4398;BME280;2213;49.720;7.296;2023-02-12T13:54:39;100114.22;;;7.90;100.00
4398;BME280;2213;49.720;7.296;2023-02-12T13:57:13;100122.13;;;7.89;100.00
4398;BME280;2213;49.720;7.296;2023-02-12T13:59:48;100117.75;;;7.89;100.00